createdAt,value
2023-04-25T00:00:08.266Z,96780.83
2023-04-25T00:03:00.869Z,96775.74
2023-04-25T00:05:30.639Z,96773.37
2023-04-25T00:07:59.677Z,96772.97
2023-04-25T00:10:27.594Z,96778.84
2023-04-25T00:12:55.542Z,96776.36
2023-04-25T00:15:24.072Z,96775.45
2023-04-25T00:17:54.135Z,96775.90
2023-04-25T00:20:23.083Z,96776.16
2023-04-25T00:22:50.990Z,96781.38
2023-04-25T00:25:19.066Z,96776.83
2023-04-25T00:27:47.003Z,96779.95
2023-04-25T00:30:15.466Z,96780.80
2023-04-25T00:32:43.593Z,96778.25
2023-04-25T00:35:11.780Z,96780.77
2023-04-25T00:37:39.744Z,96783.52
2023-04-25T00:40:08.809Z,96782.23
2023-04-25T00:42:38.076Z,96778.66
2023-04-25T00:45:08.637Z,96781.24
2023-04-25T00:47:37.334Z,96777.95
2023-04-25T00:50:05.849Z,96781.26
2023-04-25T00:52:33.964Z,96783.49
2023-04-25T00:55:02.176Z,96782.45
2023-04-25T00:57:30.600Z,96787.11
2023-04-25T01:00:00.013Z,96781.91
2023-04-25T01:02:28.496Z,96786.34
2023-04-25T01:04:56.706Z,96787.02
2023-04-25T01:07:24.756Z,96785.39
2023-04-25T01:09:53.875Z,96786.72
2023-04-25T01:12:21.984Z,96786.29
2023-04-25T01:14:50.310Z,96781.79
2023-04-25T01:17:21.190Z,96781.42
2023-04-25T01:19:50.043Z,96778.66
2023-04-25T01:22:18.319Z,96776.35
2023-04-25T01:24:46.771Z,96779.79
2023-04-25T01:27:15.278Z,96776.77
2023-04-25T01:29:43.831Z,96774.94
2023-04-25T01:32:12.188Z,96778.15
2023-04-25T01:34:40.800Z,96776.45
2023-04-25T01:37:08.854Z,96773.55
2023-04-25T01:39:36.729Z,96775.48
2023-04-25T01:42:04.956Z,96776.86
2023-04-25T01:44:33.009Z,96785.08
2023-04-25T01:47:00.980Z,96784.89
2023-04-25T01:49:29.361Z,96785.67
2023-04-25T01:51:57.932Z,96781.47
2023-04-25T01:54:26.088Z,96783.15
2023-04-25T01:56:54.296Z,96778.75
2023-04-25T01:59:23.850Z,96777.55
2023-04-25T02:02:18.681Z,96777.59
2023-04-25T02:04:46.770Z,96780.69
2023-04-25T02:07:15.515Z,96784.45
2023-04-25T02:09:51.111Z,96781.14
2023-04-25T02:12:20.544Z,96783.59
2023-04-25T02:15:19.909Z,96781.91
2023-04-25T02:17:54.913Z,96782.81
2023-04-25T02:20:24.275Z,96783.27
2023-04-25T02:22:52.518Z,96787.02
2023-04-25T02:25:22.774Z,96787.46
2023-04-25T02:27:52.498Z,96792.02
2023-04-25T02:30:20.614Z,96792.10
2023-04-25T02:32:48.653Z,96793.17
2023-04-25T02:35:16.904Z,96792.95
2023-04-25T02:37:44.859Z,96793.23
2023-04-25T02:40:15.080Z,96797.65
2023-04-25T02:42:42.986Z,96796.27
2023-04-25T02:45:11.091Z,96797.04
2023-04-25T02:47:39.008Z,96795.11
2023-04-25T02:50:07.629Z,96803.02
2023-04-25T02:52:36.460Z,96804.09
2023-04-25T02:55:11.976Z,96802.66
2023-04-25T02:57:40.045Z,96800.38
2023-04-25T03:00:08.892Z,96802.48
2023-04-25T03:02:36.908Z,96808.39
2023-04-25T03:05:05.169Z,96803.67
2023-04-25T03:07:33.202Z,96806.95
2023-04-25T03:10:01.254Z,96807.00
2023-04-25T03:12:31.262Z,96809.36
2023-04-25T03:14:59.321Z,96808.63
2023-04-25T03:17:27.398Z,96810.06
2023-04-25T03:19:56.325Z,96805.19
2023-04-25T03:22:25.407Z,96805.92
2023-04-25T03:24:53.509Z,96809.02
2023-04-25T03:27:21.518Z,96811.11
2023-04-25T03:29:49.429Z,96815.93
2023-04-25T03:32:17.449Z,96813.59
2023-04-25T03:34:45.401Z,96818.25
2023-04-25T03:37:13.487Z,96814.86
2023-04-25T03:39:42.418Z,96820.10
2023-04-25T03:42:10.585Z,96818.55
2023-04-25T03:44:41.058Z,96827.34
2023-04-25T03:47:09.380Z,96826.05
2023-04-25T03:49:37.969Z,96827.98
2023-04-25T03:52:07.655Z,96827.95
2023-04-25T03:54:38.526Z,96829.20
2023-04-25T03:57:18.907Z,96829.22
2023-04-25T03:59:46.892Z,96829.91
2023-04-25T04:02:16.143Z,96833.55
2023-04-25T04:04:45.565Z,96833.90
2023-04-25T04:07:14.937Z,96839.75
2023-04-25T04:09:45.449Z,96838.62
2023-04-25T04:12:22.354Z,96847.11
2023-04-25T04:14:50.405Z,96849.41
2023-04-25T04:17:18.843Z,96853.10
2023-04-25T04:19:46.882Z,96858.45
2023-04-25T04:22:20.434Z,96866.29
2023-04-25T04:24:51.154Z,96863.87
2023-04-25T04:27:40.202Z,96868.79
2023-04-25T04:30:26.549Z,96868.84
2023-04-25T04:32:59.122Z,96868.71
2023-04-25T04:35:27.458Z,96868.35
2023-04-25T04:37:55.801Z,96866.13
2023-04-25T04:40:24.931Z,96867.61
2023-04-25T04:43:05.744Z,96866.76
2023-04-25T04:46:05.393Z,96865.02
2023-04-25T04:48:57.494Z,96870.11
2023-04-25T04:52:04.185Z,96872.09
2023-04-25T04:54:54.914Z,96877.47
2023-04-25T04:57:50.001Z,96875.65
2023-04-25T05:00:41.505Z,96878.35
2023-04-25T05:03:30.018Z,96875.63
2023-04-25T05:06:13.745Z,96872.45
2023-04-25T05:09:10.897Z,96875.04
2023-04-25T05:12:02.359Z,96871.96
2023-04-25T05:14:50.358Z,96878.09
2023-04-25T05:17:36.872Z,96878.37
2023-04-25T05:20:22.701Z,96882.53
2023-04-25T05:23:22.956Z,96882.02
2023-04-25T05:26:19.182Z,96882.24
2023-04-25T05:29:07.476Z,96883.97
2023-04-25T05:31:55.766Z,96884.65
2023-04-25T05:34:23.980Z,96886.00
2023-04-25T05:37:14.662Z,96890.09
2023-04-25T05:39:54.459Z,96893.65
2023-04-25T05:42:38.361Z,96895.42
2023-04-25T05:45:24.490Z,96892.51
2023-04-25T05:48:11.087Z,96895.56
2023-04-25T05:51:05.440Z,96898.88
2023-04-25T05:53:53.045Z,96897.52
2023-04-25T05:56:21.726Z,96899.65
2023-04-25T05:58:53.495Z,96899.56
2023-04-25T06:01:21.652Z,96901.46
2023-04-25T06:03:50.086Z,96902.05
2023-04-25T06:06:19.019Z,96905.14
2023-04-25T06:08:48.085Z,96908.30
2023-04-25T06:11:15.953Z,96909.44
2023-04-25T06:13:43.896Z,96905.98
2023-04-25T06:16:13.468Z,96919.52
2023-04-25T06:18:41.454Z,96915.55
2023-04-25T06:21:10.451Z,96915.86
2023-04-25T06:23:39.002Z,96914.80
2023-04-25T06:30:31.185Z,96922.55
2023-04-25T06:33:03.316Z,96918.08
2023-04-25T06:35:31.586Z,96921.65
2023-04-25T06:37:59.964Z,96922.41
2023-04-25T06:40:28.104Z,96922.02
2023-04-25T06:47:10.910Z,96921.77
2023-04-25T06:49:38.889Z,96923.75
2023-04-25T06:52:07.920Z,96926.49
2023-04-25T06:54:35.853Z,96927.05
2023-04-25T06:57:11.165Z,96919.21
2023-04-25T06:59:39.094Z,96919.95
2023-04-25T07:02:07.392Z,96920.09
2023-04-25T07:04:35.846Z,96918.15
2023-04-25T07:07:04.970Z,96921.23
2023-04-25T07:09:38.696Z,96917.73
2023-04-25T07:12:06.983Z,96925.30
2023-04-25T07:14:35.400Z,96924.98
2023-04-25T07:17:03.543Z,96926.16
2023-04-25T07:19:34.324Z,96923.11
2023-04-25T07:22:03.314Z,96921.52
2023-04-25T07:24:31.421Z,96921.77
2023-04-25T07:26:59.589Z,96918.88
2023-04-25T07:29:46.831Z,96923.63
2023-04-25T07:32:15.266Z,96926.56
2023-04-25T07:34:44.362Z,96923.94
2023-04-25T07:37:12.493Z,96923.25
2023-04-25T07:39:50.970Z,96927.34
2023-04-25T07:42:18.914Z,96926.36
2023-04-25T07:44:46.967Z,96926.13
2023-04-25T07:47:16.058Z,96924.79
2023-04-25T07:49:44.207Z,96926.46
2023-04-25T07:52:12.996Z,96923.56
2023-04-25T07:54:44.864Z,96925.13
2023-04-25T07:57:18.154Z,96927.43
2023-04-25T07:59:46.882Z,96929.14
2023-04-25T08:02:15.788Z,96926.90
2023-04-25T08:04:43.855Z,96925.91
2023-04-25T08:07:14.360Z,96920.99
2023-04-25T08:09:49.793Z,96923.20
2023-04-25T08:12:24.496Z,96930.65
2023-04-25T08:14:52.534Z,96929.58
2023-04-25T08:17:20.613Z,96926.95
2023-04-25T08:19:48.645Z,96923.48
2023-04-25T08:22:25.602Z,96927.52
2023-04-25T08:25:00.179Z,96928.64
2023-04-25T08:27:28.952Z,96922.77
2023-04-25T08:29:59.464Z,96929.55
2023-04-25T08:32:29.062Z,96929.67
2023-04-25T08:35:18.604Z,96930.42
2023-04-25T08:37:47.160Z,96924.36
2023-04-25T08:40:17.268Z,96928.55
2023-04-25T08:42:58.603Z,96931.19
2023-04-25T08:45:29.080Z,96930.36
2023-04-25T08:47:58.320Z,96926.64
2023-04-25T08:50:27.452Z,96924.39
2023-04-25T08:52:57.063Z,96927.05
2023-04-25T08:55:28.079Z,96926.34
2023-04-25T08:58:02.004Z,96928.52
2023-04-25T09:00:30.649Z,96931.31
2023-04-25T09:03:00.899Z,96931.66
2023-04-25T09:05:33.986Z,96932.08
2023-04-25T09:08:02.683Z,96934.65
2023-04-25T09:13:07.888Z,96939.46
2023-04-25T09:15:53.317Z,96940.39
2023-04-25T09:18:37.482Z,96944.66
2023-04-25T09:21:14.338Z,96949.65
2023-04-25T09:23:49.813Z,96945.73
2023-04-25T09:26:19.682Z,96946.13
2023-04-25T09:28:49.170Z,96947.50
2023-04-25T09:31:25.610Z,96949.63
2023-04-25T09:34:02.504Z,96950.69
2023-04-25T09:36:35.710Z,96951.66
2023-04-25T09:39:22.495Z,96944.45
2023-04-25T09:42:00.567Z,96950.23
2023-04-25T09:44:28.677Z,96948.14
2023-04-25T09:46:56.846Z,96941.83
2023-04-25T09:49:28.757Z,96943.02
2023-04-25T09:52:06.046Z,96942.20
2023-04-25T09:54:39.228Z,96943.63
2023-04-25T09:57:24.834Z,96941.88
2023-04-25T09:59:56.153Z,96946.09
2023-04-25T10:02:28.319Z,96945.17
2023-04-25T10:05:01.599Z,96940.88
2023-04-25T10:07:39.232Z,96939.88
2023-04-25T10:10:13.726Z,96942.55
2023-04-25T10:12:44.575Z,96937.66
2023-04-25T10:15:14.205Z,96934.55
2023-04-25T10:17:42.336Z,96939.02
2023-04-25T10:20:12.193Z,96935.20
2023-04-25T10:22:43.990Z,96936.75
2023-04-25T10:25:12.886Z,96931.73
2023-04-25T10:27:41.279Z,96934.05
2023-04-25T10:30:14.245Z,96931.27
2023-04-25T10:32:46.711Z,96925.98
2023-04-25T10:35:20.518Z,96924.33
2023-04-25T10:38:06.710Z,96924.39
2023-04-25T10:40:34.793Z,96928.52
2023-04-25T10:43:32.142Z,96918.09
2023-04-25T10:46:04.336Z,96917.42
2023-04-25T10:48:32.896Z,96909.04
2023-04-25T10:51:32.455Z,96904.98
2023-04-25T10:54:07.920Z,96904.46
2023-04-25T10:56:45.618Z,96900.73
2023-04-25T10:59:19.433Z,96899.73
2023-04-25T11:01:50.361Z,96903.89
2023-04-25T11:04:37.956Z,96902.32
2023-04-25T11:07:19.606Z,96900.95
2023-04-25T11:09:47.976Z,96903.15
2023-04-25T11:12:16.153Z,96900.43
2023-04-25T11:14:44.167Z,96904.52
2023-04-25T11:17:12.596Z,96902.61
2023-04-25T11:19:40.894Z,96902.20
2023-04-25T11:22:08.965Z,96908.11
2023-04-25T11:24:37.914Z,96903.48
2023-04-25T11:27:09.407Z,96906.73
2023-04-25T11:29:37.598Z,96907.77
2023-04-25T11:32:05.766Z,96912.82
2023-04-25T11:34:34.851Z,96918.08
2023-04-25T11:37:03.822Z,96914.01
2023-04-25T11:39:31.846Z,96918.17
2023-04-25T11:42:01.467Z,96915.31
2023-04-25T11:44:29.744Z,96913.52
2023-04-25T11:46:57.827Z,96912.79
2023-04-25T11:49:32.595Z,96910.39
2023-04-25T11:52:01.064Z,96907.19
2023-04-25T11:54:29.030Z,96905.30
2023-04-25T11:56:57.832Z,96911.58
2023-04-25T11:59:26.909Z,96908.91
2023-04-25T12:01:55.471Z,96912.20
2023-04-25T12:04:25.916Z,96911.12
2023-04-25T12:06:56.230Z,96911.88
2023-04-25T12:09:33.183Z,96908.69
2023-04-25T12:12:04.929Z,96910.88
2023-04-25T12:14:35.923Z,96905.54
2023-04-25T12:17:05.328Z,96904.80
2023-04-25T12:19:36.353Z,96904.31
2023-04-25T12:22:21.243Z,96909.60
2023-04-25T12:24:49.350Z,96911.16
2023-04-25T12:27:20.165Z,96907.55
2023-04-25T12:29:56.996Z,96908.41
2023-04-25T12:32:26.390Z,96905.55
2023-04-25T12:34:54.367Z,96911.32
2023-04-25T12:37:22.454Z,96910.06
2023-04-25T12:39:50.456Z,96906.95
2023-04-25T12:42:18.456Z,96907.41
2023-04-25T12:44:47.659Z,96911.36
2023-04-25T12:47:15.998Z,96917.67
2023-04-25T12:49:43.943Z,96910.43
2023-04-25T12:52:11.848Z,96912.77
2023-04-25T12:54:39.866Z,96909.98
2023-04-25T12:57:07.849Z,96914.20
2023-04-25T12:59:35.839Z,96915.30
2023-04-25T13:02:04.120Z,96913.57
2023-04-25T13:04:32.463Z,96913.58
2023-04-25T13:07:01.296Z,96912.41
2023-04-25T13:09:29.423Z,96911.71
2023-04-25T13:11:59.371Z,96912.41
2023-04-25T13:14:27.720Z,96910.64
2023-04-25T13:16:55.795Z,96908.71
2023-04-25T13:19:23.817Z,96913.84
2023-04-25T13:21:51.978Z,96912.22
2023-04-25T13:24:19.989Z,96913.40
2023-04-25T13:26:47.932Z,96912.32
2023-04-25T13:29:15.899Z,96911.27
2023-04-25T13:31:43.846Z,96909.11
2023-04-25T13:34:13.669Z,96916.07
2023-04-25T13:36:41.825Z,96919.15
2023-04-25T13:39:09.775Z,96919.44
2023-04-25T13:41:37.896Z,96917.13
2023-04-25T13:44:05.867Z,96921.80
2023-04-25T13:46:45.653Z,96924.25
2023-04-25T13:49:15.021Z,96922.41
2023-04-25T13:51:43.600Z,96924.46
2023-04-25T13:54:11.984Z,96924.66
2023-04-25T13:56:40.024Z,96912.06
2023-04-25T13:59:08.037Z,96915.16
2023-04-25T14:01:37.256Z,96919.56
2023-04-25T14:04:05.713Z,96922.79
2023-04-25T14:06:34.312Z,96918.50
2023-04-25T14:09:02.468Z,96923.98
2023-04-25T14:11:30.752Z,96926.20
2023-04-25T14:13:58.744Z,96928.03
2023-04-25T14:16:26.844Z,96928.22
2023-04-25T14:18:55.678Z,96928.19
2023-04-25T14:21:23.630Z,96924.92
2023-04-25T14:23:51.921Z,96923.61
2023-04-25T14:26:20.143Z,96925.30
2023-04-25T14:28:48.025Z,96927.34
2023-04-25T14:31:16.573Z,96927.25
2023-04-25T14:33:44.792Z,96932.41
2023-04-25T14:36:12.672Z,96930.61
2023-04-25T14:38:40.706Z,96934.44
2023-04-25T14:41:08.635Z,96927.66
2023-04-25T14:43:37.710Z,96928.50
2023-04-25T14:46:05.763Z,96932.94
2023-04-25T14:48:34.365Z,96926.75
2023-04-25T14:51:02.286Z,96931.41
2023-04-25T14:53:30.203Z,96931.65
2023-04-25T14:55:58.149Z,96930.14
2023-04-25T14:58:26.049Z,96932.52
2023-04-25T15:00:54.501Z,96935.02
2023-04-25T15:03:24.043Z,96938.91
2023-04-25T15:05:52.459Z,96935.86
2023-04-25T15:08:20.814Z,96941.55
2023-04-25T15:10:50.228Z,96945.70
2023-04-25T15:13:22.177Z,96946.82
2023-04-25T15:15:52.401Z,96950.19
2023-04-25T15:18:24.757Z,96947.76
2023-04-25T15:20:54.210Z,96948.76
2023-04-25T15:23:22.910Z,96946.31
2023-04-25T15:25:52.589Z,96948.48
2023-04-25T15:28:22.450Z,96942.34
2023-04-25T15:30:51.297Z,96936.02
2023-04-25T15:33:19.243Z,96931.89
2023-04-25T15:35:47.132Z,96930.19
2023-04-25T15:38:15.115Z,96928.32
2023-04-25T15:40:43.625Z,96928.02
2023-04-25T15:43:15.963Z,96926.96
2023-04-25T15:45:45.763Z,96933.86
2023-04-25T15:48:14.023Z,96935.92
2023-04-25T15:50:42.527Z,96936.84
2023-04-25T15:53:10.686Z,96932.42
2023-04-25T15:55:39.118Z,96932.27
2023-04-25T15:58:07.095Z,96937.58
2023-04-25T16:00:36.365Z,96937.17
2023-04-25T16:03:05.362Z,96930.38
2023-04-25T16:05:33.558Z,96930.94
2023-04-25T16:08:01.530Z,96936.67
2023-04-25T16:10:29.416Z,96935.77
2023-04-25T16:12:57.526Z,96937.45
2023-04-25T16:15:25.681Z,96929.05
2023-04-25T16:17:53.627Z,96929.33
2023-04-25T16:20:22.869Z,96931.55
2023-04-25T16:22:51.083Z,96932.28
2023-04-25T16:25:19.099Z,96935.05
2023-04-25T16:27:47.176Z,96938.36
2023-04-25T16:30:15.424Z,96945.62
2023-04-25T16:32:45.380Z,96942.73
2023-04-25T16:35:13.898Z,96939.45
2023-04-25T16:37:41.945Z,96940.43
2023-04-25T16:40:10.281Z,96944.66
2023-04-25T16:42:38.270Z,96946.79
2023-04-25T16:45:06.680Z,96941.96
2023-04-25T16:47:34.674Z,96943.36
2023-04-25T16:50:02.893Z,96948.63
2023-04-25T16:52:31.630Z,96950.14
2023-04-25T16:54:59.586Z,96951.64
2023-04-25T16:57:27.541Z,96960.20
2023-04-25T16:59:55.475Z,96964.78
2023-04-25T17:02:23.652Z,96966.02
2023-04-25T17:04:51.820Z,96961.59
2023-04-25T17:07:24.538Z,96969.77
2023-04-25T17:09:52.562Z,96968.36
2023-04-25T17:12:21.605Z,96970.89
2023-04-25T17:14:50.249Z,96974.04
2023-04-25T17:17:18.945Z,96972.35
2023-04-25T17:19:47.269Z,96973.84
2023-04-25T17:22:15.341Z,96969.61
2023-04-25T17:24:43.311Z,96969.91
2023-04-25T17:27:11.743Z,96976.23
2023-04-25T17:29:39.730Z,96974.55
2023-04-25T17:32:07.798Z,96976.83
2023-04-25T17:34:37.707Z,96982.06
2023-04-25T17:37:06.305Z,96983.92
2023-04-25T17:39:34.454Z,96989.20
2023-04-25T17:42:02.739Z,96992.41
2023-04-25T17:44:31.019Z,96989.59
2023-04-25T17:46:58.980Z,96991.11
2023-04-25T17:49:26.973Z,97000.01
2023-04-25T17:51:54.952Z,97000.46
2023-04-25T17:54:22.900Z,97000.70
2023-04-25T17:56:50.967Z,96998.34
2023-04-25T17:59:19.451Z,97003.56
2023-04-25T18:01:48.327Z,96998.89
2023-04-25T18:04:17.656Z,97002.11
2023-04-25T18:06:46.299Z,97001.63
2023-04-25T18:09:23.880Z,97008.17
2023-04-25T18:11:56.617Z,97012.63
2023-04-25T18:14:25.158Z,97020.67
2023-04-25T18:16:56.723Z,97028.30
2023-04-25T18:19:24.658Z,97031.65
2023-04-25T18:21:56.246Z,97035.57
2023-04-25T18:24:27.328Z,97034.91
2023-04-25T18:26:56.111Z,97039.98
2023-04-25T18:29:32.865Z,97043.92
2023-04-25T18:32:02.238Z,97047.46
2023-04-25T18:34:31.183Z,97055.54
2023-04-25T18:36:59.242Z,97060.80
2023-04-25T18:39:27.725Z,97062.03
2023-04-25T18:42:04.355Z,97063.37
2023-04-25T18:44:39.658Z,97067.43
2023-04-25T18:47:09.020Z,97074.67
2023-04-25T18:49:37.712Z,97080.66
2023-04-25T18:52:10.353Z,97085.70
2023-04-25T18:54:39.173Z,97096.80
2023-04-25T18:57:07.686Z,97099.88
2023-04-25T18:59:36.242Z,97104.36
2023-04-25T19:02:05.604Z,97107.77
2023-04-25T19:04:34.491Z,97110.80
2023-04-25T19:07:04.236Z,97111.36
2023-04-25T19:09:32.660Z,97112.48
2023-04-25T19:12:01.906Z,97113.64
2023-04-25T19:14:32.610Z,97108.35
2023-04-25T19:17:00.822Z,97108.63
2023-04-25T19:19:29.029Z,97112.05
2023-04-25T19:21:58.807Z,97112.17
2023-04-25T19:24:27.261Z,97111.42
2023-04-25T19:26:55.311Z,97114.16
2023-04-25T19:29:23.251Z,97118.77
2023-04-25T19:31:51.573Z,97123.30
2023-04-25T19:34:19.722Z,97128.64
2023-04-25T19:36:48.979Z,97126.88
2023-04-25T19:39:16.970Z,97127.31
2023-04-25T19:41:44.914Z,97130.80
2023-04-25T19:44:12.847Z,97131.04
2023-04-25T19:46:42.194Z,97130.16
2023-04-25T19:49:10.283Z,97134.41
2023-04-25T19:51:38.238Z,97135.09
2023-04-25T19:54:06.230Z,97138.12
2023-04-25T19:56:34.231Z,97139.05
2023-04-25T19:59:02.409Z,97135.69
2023-04-25T20:01:30.756Z,97136.73
2023-04-25T20:03:59.108Z,97135.44
2023-04-25T20:06:27.510Z,97131.97
2023-04-25T20:13:42.507Z,97135.23
2023-04-25T20:16:10.873Z,97135.00
2023-04-25T20:18:39.736Z,97134.19
2023-04-25T20:21:08.696Z,97138.67
2023-04-25T20:23:36.637Z,97139.06
2023-04-25T20:26:05.031Z,97141.13
2023-04-25T20:28:33.330Z,97142.70
2023-04-25T20:31:02.502Z,97150.13
2023-04-25T20:33:30.614Z,97149.04
2023-04-25T20:35:58.743Z,97147.30
2023-04-25T20:38:26.961Z,97144.23
2023-04-25T20:40:56.518Z,97146.95
2023-04-25T20:43:25.924Z,97145.13
2023-04-25T20:45:54.960Z,97147.41
2023-04-25T20:48:23.155Z,97148.04
2023-04-25T20:50:51.581Z,97155.35
2023-04-25T20:53:19.571Z,97161.49
2023-04-25T20:55:48.221Z,97164.95
2023-04-25T20:58:16.312Z,97167.04
2023-04-25T21:00:47.701Z,97169.95
2023-04-25T21:03:16.218Z,97168.93
2023-04-25T21:05:44.461Z,97170.95
2023-04-25T21:08:12.860Z,97173.84
2023-04-25T21:10:41.007Z,97176.54
2023-04-25T21:13:08.965Z,97176.61
2023-04-25T21:15:37.070Z,97182.33
2023-04-25T21:18:05.058Z,97184.84
2023-04-25T21:20:33.265Z,97191.36
2023-04-25T21:23:01.689Z,97189.27
2023-04-25T21:25:31.941Z,97191.99
2023-04-25T21:28:02.402Z,97190.79
2023-04-25T21:30:30.941Z,97192.86
2023-04-25T21:32:59.090Z,97188.41
2023-04-25T21:35:27.064Z,97189.73
2023-04-25T21:37:55.360Z,97191.20
2023-04-25T21:40:23.458Z,97192.45
2023-04-25T21:42:53.515Z,97189.39
2023-04-25T21:45:21.782Z,97184.54
2023-04-25T21:47:50.878Z,97192.17
2023-04-25T21:50:19.757Z,97197.06
2023-04-25T21:52:48.495Z,97200.33
2023-04-25T21:55:17.478Z,97200.74
2023-04-25T21:57:46.464Z,97205.70
2023-04-25T22:00:21.704Z,97214.00
2023-04-25T22:02:49.741Z,97221.65
2023-04-25T22:05:21.378Z,97223.95
2023-04-25T22:07:50.742Z,97224.24
2023-04-25T22:10:19.794Z,97221.18
2023-04-25T22:12:51.099Z,97225.92
2023-04-25T22:15:21.615Z,97227.85
2023-04-25T22:17:56.659Z,97230.73
2023-04-25T22:20:26.510Z,97234.46
2023-04-25T22:22:56.573Z,97239.38
2023-04-25T22:25:25.345Z,97241.45
2023-04-25T22:27:53.289Z,97238.02
2023-04-25T22:30:21.793Z,97240.57
2023-04-25T22:32:49.972Z,97245.32
2023-04-25T22:35:18.020Z,97242.86
2023-04-25T22:37:46.138Z,97244.10
2023-04-25T22:40:14.111Z,97244.46
2023-04-25T22:42:43.726Z,97245.33
2023-04-25T22:45:12.415Z,97249.64
2023-04-25T22:47:40.810Z,97246.93
2023-04-25T22:50:13.752Z,97246.98
2023-04-25T22:52:42.972Z,97252.36
2023-04-25T22:55:12.611Z,97250.28
2023-04-25T22:57:41.653Z,97252.86
2023-04-25T23:00:19.302Z,97252.42
2023-04-25T23:02:48.873Z,97256.23
2023-04-25T23:05:16.968Z,97251.34
2023-04-25T23:07:45.210Z,97253.36
2023-04-25T23:10:14.399Z,97255.82
2023-04-25T23:12:42.947Z,97254.93
2023-04-25T23:15:13.230Z,97254.36
2023-04-25T23:17:42.282Z,97258.46
2023-04-25T23:20:11.749Z,97261.15
2023-04-25T23:22:39.789Z,97264.73
2023-04-25T23:25:08.721Z,97269.45
2023-04-25T23:27:37.549Z,97274.23
2023-04-25T23:30:06.474Z,97282.23
2023-04-25T23:32:34.849Z,97279.66
2023-04-25T23:35:04.953Z,97279.27
2023-04-25T23:37:34.261Z,97281.14
2023-04-25T23:40:02.808Z,97278.30
2023-04-25T23:42:30.828Z,97284.71
2023-04-25T23:44:58.721Z,97282.25
2023-04-25T23:47:26.595Z,97284.04
2023-04-25T23:49:54.596Z,97287.48
2023-04-25T23:52:23.685Z,97288.93
2023-04-25T23:54:51.702Z,97291.13
2023-04-25T23:57:19.631Z,97292.43
2023-04-25T23:59:47.535Z,97293.95
